LICJ/PMO METAR and TAF weather

Enter ICAO airport designator
Station Type Date Time Source
LICJ METAR 2022/01/29 00:20 UTC NOAA

LICJ 290020Z 33012KT 9999 SCT040 SCT055 13/06 Q1024


Station Type Date Time Source
LICJ Decoded METAR 2022/01/29 00:20 UTC NOAA

Palermo / Punta Raisi, Italy (LICJ) 38-11N 013-06E 21M
Jan 28, 2022 - 07:20 PM EST / 2022.01.29 0020 UTC
Wind: from the NNW (330 degrees) at 14 MPH (12 KT):0
Visibility: greater than 7 mile(s):0
Sky conditions: partly cloudy
Temperature: 55 F (13 C)
Dew Point: 42 F (6 C)
Relative Humidity: 62%
Pressure (altimeter): 30.24 in. Hg (1024 hPa)
ob: LICJ 290020Z 33012KT 9999 SCT040 SCT055 13/06 Q1024
cycle: 0

Station Type Date Time Source
LICJ TAF 2022/01/28 18:24 UTC NOAA

TAF LICJ 281700Z 2818/2918 26010KT 9999 SCT025
BECMG 2901/2903 01012KT

Example: see airport list